createdAt,value
2022-12-13T00:00:31.544Z,18.53
2022-12-13T00:02:59.080Z,20.63
2022-12-13T00:05:26.620Z,19.70
2022-12-13T00:07:54.122Z,19.20
2022-12-13T00:10:21.603Z,18.93
2022-12-13T00:12:49.063Z,20.40
2022-12-13T00:15:16.872Z,20.43
2022-12-13T00:17:44.466Z,20.30
2022-12-13T00:20:12.544Z,20.07
2022-12-13T00:22:40.150Z,20.73
2022-12-13T00:25:07.759Z,21.47
2022-12-13T00:27:35.191Z,20.90
2022-12-13T00:30:02.906Z,21.73
2022-12-13T00:32:30.329Z,20.37
2022-12-13T00:34:57.818Z,20.87
2022-12-13T00:37:25.256Z,21.00
2022-12-13T00:39:52.923Z,21.87
2022-12-13T00:42:20.381Z,22.73
2022-12-13T00:44:47.867Z,21.70
2022-12-13T00:47:15.364Z,21.13
2022-12-13T00:49:42.789Z,21.73
2022-12-13T00:52:10.251Z,21.27
2022-12-13T00:54:37.704Z,21.60
2022-12-13T00:57:05.154Z,20.27
2022-12-13T00:59:32.620Z,19.37
2022-12-13T01:02:00.213Z,20.30
2022-12-13T01:04:27.958Z,20.20
2022-12-13T01:06:55.387Z,21.83
2022-12-13T01:09:24.307Z,20.83
2022-12-13T01:11:51.858Z,20.73
2022-12-13T01:14:19.641Z,20.83
2022-12-13T01:16:47.224Z,20.20
2022-12-13T01:19:14.853Z,20.73
2022-12-13T01:21:42.294Z,21.07
2022-12-13T01:24:09.766Z,21.40
2022-12-13T01:26:37.207Z,19.97
2022-12-13T01:29:04.659Z,19.53
2022-12-13T01:31:32.141Z,19.07
2022-12-13T01:33:59.626Z,19.40
2022-12-13T01:36:28.443Z,19.53
2022-12-13T01:38:59.441Z,20.70
2022-12-13T01:41:28.443Z,20.07
2022-12-13T01:43:57.880Z,20.10
2022-12-13T01:46:25.368Z,21.73
2022-12-13T01:48:55.727Z,22.03
2022-12-13T01:51:26.126Z,22.23
2022-12-13T01:53:54.651Z,19.17
2022-12-13T01:56:24.180Z,20.30
2022-12-13T01:58:52.676Z,19.63
2022-12-13T02:01:20.385Z,20.27
2022-12-13T02:03:47.925Z,19.83
2022-12-13T02:06:17.819Z,19.47
2022-12-13T02:08:45.852Z,21.63
2022-12-13T02:11:14.659Z,20.10
2022-12-13T02:13:42.231Z,21.53
2022-12-13T02:16:10.144Z,20.43
2022-12-13T02:18:40.407Z,19.33
2022-12-13T02:21:13.721Z,21.27
2022-12-13T02:23:50.307Z,19.93
2022-12-13T02:26:29.850Z,23.20
2022-12-13T02:29:03.072Z,22.07
2022-12-13T02:31:32.402Z,21.73
2022-12-13T02:34:07.764Z,19.63
2022-12-13T02:36:42.413Z,19.47
2022-12-13T02:39:29.714Z,19.47
2022-12-13T02:42:01.858Z,20.53
2022-12-13T02:44:36.314Z,21.73
2022-12-13T02:47:07.110Z,22.37
2022-12-13T02:49:42.926Z,21.23
2022-12-13T02:52:12.634Z,22.33
2022-12-13T02:54:42.892Z,22.13
2022-12-13T02:57:29.221Z,22.80
2022-12-13T02:59:57.563Z,22.10
2022-12-13T03:02:31.648Z,22.37
2022-12-13T03:04:59.377Z,22.23
2022-12-13T03:07:34.302Z,22.50
2022-12-13T03:10:12.949Z,22.83
2022-12-13T03:13:00.660Z,21.70
2022-12-13T03:16:06.728Z,24.17
2022-12-13T03:18:35.358Z,22.97
2022-12-13T03:21:03.982Z,22.77
2022-12-13T03:23:31.711Z,22.57
2022-12-13T03:26:08.061Z,23.93
2022-12-13T03:28:35.542Z,21.93
2022-12-13T03:31:03.120Z,22.60
2022-12-13T03:33:30.749Z,23.00
2022-12-13T03:35:58.492Z,23.50
2022-12-13T03:38:26.348Z,24.27
2022-12-13T03:40:56.490Z,22.70
2022-12-13T03:43:27.259Z,24.43
2022-12-13T03:45:55.374Z,23.63
2022-12-13T03:48:24.017Z,24.83
2022-12-13T03:50:52.862Z,24.47
2022-12-13T03:53:23.096Z,21.83
2022-12-13T03:56:03.075Z,23.33
2022-12-13T03:58:36.326Z,23.17
2022-12-13T04:01:08.904Z,21.13
2022-12-13T04:03:37.564Z,20.10
2022-12-13T04:06:06.000Z,22.37
2022-12-13T04:08:34.919Z,20.57
2022-12-13T04:11:03.376Z,20.73
2022-12-13T04:13:33.944Z,21.37
2022-12-13T04:16:05.418Z,21.00
2022-12-13T04:18:43.082Z,19.53
2022-12-13T04:21:11.205Z,20.30
2022-12-13T04:23:39.078Z,19.93
2022-12-13T04:26:09.140Z,21.10
2022-12-13T04:28:41.090Z,20.93
2022-12-13T04:31:10.453Z,21.37
2022-12-13T04:33:43.908Z,20.53
2022-12-13T04:36:14.758Z,19.97
2022-12-13T04:39:01.865Z,20.33
2022-12-13T04:41:34.459Z,19.47
2022-12-13T04:44:06.360Z,20.10
2022-12-13T04:47:02.968Z,19.93
2022-12-13T04:49:34.106Z,22.43
2022-12-13T04:52:02.807Z,20.97
2022-12-13T04:54:36.572Z,20.50
2022-12-13T04:57:06.295Z,20.67
2022-12-13T04:59:35.278Z,21.50
2022-12-13T05:02:08.828Z,22.23
2022-12-13T05:04:39.619Z,21.70
2022-12-13T05:07:10.514Z,22.07
2022-12-13T05:09:39.720Z,20.87
2022-12-13T05:12:21.886Z,20.40
2022-12-13T05:14:51.025Z,19.37
2022-12-13T05:17:19.038Z,19.43
2022-12-13T05:19:46.949Z,21.60
2022-12-13T05:22:19.398Z,19.83
2022-12-13T05:24:48.846Z,21.00
2022-12-13T05:27:24.682Z,21.37
2022-12-13T05:30:03.429Z,20.47
2022-12-13T05:32:43.948Z,20.87
2022-12-13T05:35:22.487Z,20.97
2022-12-13T05:37:53.729Z,20.00
2022-12-13T05:40:22.559Z,20.87
2022-12-13T05:42:50.082Z,21.97
2022-12-13T05:45:21.586Z,20.67
2022-12-13T05:47:49.310Z,21.90
2022-12-13T05:50:17.267Z,21.40
2022-12-13T05:52:45.116Z,21.70
2022-12-13T05:55:12.868Z,20.10
2022-12-13T05:57:40.422Z,19.93
2022-12-13T06:00:29.322Z,21.03
2022-12-13T06:02:56.435Z,20.87
2022-12-13T06:05:28.246Z,22.80
2022-12-13T06:07:57.581Z,21.70
2022-12-13T06:10:34.989Z,20.40
2022-12-13T06:13:21.163Z,20.93
2022-12-13T06:15:52.039Z,20.37
2022-12-13T06:18:31.129Z,21.50
2022-12-13T06:20:59.406Z,21.17
2022-12-13T06:23:27.173Z,22.07
2022-12-13T06:25:54.745Z,22.07
2022-12-13T06:28:22.256Z,21.33
2022-12-13T06:30:50.093Z,20.97
2022-12-13T06:33:23.269Z,20.40
2022-12-13T06:35:51.386Z,19.90
2022-12-13T06:38:21.909Z,20.93
2022-12-13T06:41:32.106Z,21.33
2022-12-13T06:43:59.931Z,21.07
2022-12-13T06:46:27.493Z,20.50
2022-12-13T06:48:54.977Z,19.90
2022-12-13T06:51:23.276Z,21.20
2022-12-13T06:54:01.350Z,21.83
2022-12-13T06:56:29.326Z,21.20
2022-12-13T06:59:01.227Z,21.27
2022-12-13T07:01:37.037Z,22.27
2022-12-13T07:04:29.957Z,24.07
2022-12-13T07:07:01.286Z,20.60
2022-12-13T07:09:30.539Z,19.50
2022-12-13T07:11:58.107Z,19.93
2022-12-13T07:14:25.703Z,20.97
2022-12-13T07:16:57.956Z,19.43
2022-12-13T07:19:35.282Z,20.30
2022-12-13T07:22:03.777Z,22.63
2022-12-13T07:24:31.231Z,20.27
2022-12-13T07:26:58.762Z,21.67
2022-12-13T07:29:26.203Z,21.30
2022-12-13T07:31:53.683Z,22.00
2022-12-13T07:34:29.869Z,21.97
2022-12-13T07:36:57.421Z,22.60
2022-12-13T07:39:27.107Z,22.23
2022-12-13T07:41:55.425Z,21.47
2022-12-13T07:44:22.963Z,22.60
2022-12-13T07:46:50.536Z,21.13
2022-12-13T07:49:18.100Z,27.65
2022-12-13T07:51:45.616Z,22.83
2022-12-13T07:54:13.086Z,22.57
2022-12-13T07:56:40.684Z,22.03
2022-12-13T07:59:10.360Z,20.50
2022-12-13T08:01:38.209Z,20.17
2022-12-13T08:04:05.830Z,20.17
2022-12-13T08:06:37.571Z,18.00
2022-12-13T08:09:05.628Z,17.33
2022-12-13T08:11:33.258Z,20.23
2022-12-13T08:14:00.939Z,18.70
2022-12-13T08:16:29.683Z,18.53
2022-12-13T08:19:02.462Z,19.73
2022-12-13T08:22:01.275Z,17.67
2022-12-13T08:24:30.150Z,17.70
2022-12-13T08:27:02.064Z,19.37
2022-12-13T08:29:33.967Z,18.20
2022-12-13T08:32:09.880Z,16.90
2022-12-13T08:34:37.701Z,18.33
2022-12-13T08:37:05.656Z,18.73
2022-12-13T08:39:34.245Z,18.13
2022-12-13T08:42:16.352Z,16.30
2022-12-13T08:44:46.569Z,16.30
2022-12-13T08:47:23.684Z,16.07
2022-12-13T08:50:02.042Z,15.10
2022-12-13T08:52:31.339Z,14.90
2022-12-13T08:54:58.826Z,16.07
2022-12-13T08:57:26.315Z,16.27
2022-12-13T08:59:53.780Z,13.57
2022-12-13T09:02:21.288Z,15.03
2022-12-13T09:04:48.744Z,16.27
2022-12-13T09:07:16.226Z,16.13
2022-12-13T09:09:43.842Z,15.50
2022-12-13T09:12:29.604Z,15.17
2022-12-13T09:15:01.397Z,15.37
2022-12-13T09:17:36.806Z,13.77
2022-12-13T09:20:10.309Z,12.53
2022-12-13T09:22:54.066Z,15.63
2022-12-13T09:25:37.132Z,15.47
2022-12-13T09:28:06.060Z,14.50
2022-12-13T09:30:33.519Z,12.87
2022-12-13T09:33:28.052Z,14.03
2022-12-13T09:35:48.563Z,15.23
2022-12-13T09:38:16.047Z,14.70
2022-12-13T09:40:44.858Z,14.20
2022-12-13T09:43:21.616Z,13.77
2022-12-13T09:45:51.408Z,14.43
2022-12-13T09:48:22.417Z,15.00
2022-12-13T09:50:58.506Z,14.27
2022-12-13T09:53:40.513Z,13.60
2022-12-13T09:56:11.398Z,13.93
2022-12-13T09:58:38.915Z,14.37
2022-12-13T10:01:06.768Z,13.87
2022-12-13T10:03:34.303Z,14.90
2022-12-13T10:06:07.015Z,13.93
2022-12-13T10:08:39.245Z,13.93
2022-12-13T10:11:06.869Z,15.50
2022-12-13T10:13:44.943Z,14.70
2022-12-13T10:16:36.104Z,13.70
2022-12-13T10:19:28.956Z,15.07
2022-12-13T10:22:01.450Z,13.83
2022-12-13T10:24:50.280Z,15.03
2022-12-13T10:27:18.595Z,14.20
2022-12-13T10:30:23.061Z,14.23
2022-12-13T10:32:53.759Z,14.30
2022-12-13T10:35:27.141Z,13.23
2022-12-13T10:37:55.921Z,14.03
2022-12-13T10:40:36.450Z,14.60
2022-12-13T10:43:17.440Z,12.40
2022-12-13T10:45:57.541Z,13.80
2022-12-13T10:48:47.374Z,14.53
2022-12-13T10:51:15.884Z,13.83
2022-12-13T10:53:50.265Z,14.40
2022-12-13T10:56:22.827Z,13.60
2022-12-13T10:59:15.139Z,14.70
2022-12-13T11:01:47.552Z,13.73
2022-12-13T11:04:28.978Z,13.47
2022-12-13T11:06:57.524Z,14.20
2022-12-13T11:09:38.288Z,13.20
2022-12-13T11:12:14.311Z,14.43
2022-12-13T11:14:50.629Z,13.80
2022-12-13T11:17:21.585Z,13.70
2022-12-13T11:20:01.156Z,18.17
2022-12-13T11:22:34.815Z,14.53
2022-12-13T11:25:03.959Z,14.57
2022-12-13T11:27:34.417Z,12.97
2022-12-13T11:30:14.214Z,11.27
2022-12-13T11:32:44.456Z,13.73
2022-12-13T11:35:16.985Z,13.47
2022-12-13T11:37:48.359Z,13.87
2022-12-13T11:40:19.788Z,14.40
2022-12-13T11:42:52.617Z,14.17
2022-12-13T11:45:32.118Z,13.63
2022-12-13T11:48:17.948Z,13.53
2022-12-13T11:50:49.918Z,14.03
2022-12-13T11:53:30.082Z,13.97
2022-12-13T11:56:03.710Z,12.90
2022-12-13T12:01:41.805Z,14.23
2022-12-13T12:04:32.055Z,13.23
2022-12-13T12:07:17.866Z,13.87
2022-12-13T12:10:18.446Z,12.10
2022-12-13T12:13:13.767Z,12.80
2022-12-13T12:15:56.936Z,10.10
2022-12-13T12:18:29.819Z,11.77
2022-12-13T12:21:06.927Z,12.43
2022-12-13T12:23:52.516Z,11.63
2022-12-13T12:26:24.597Z,12.57
2022-12-13T12:29:01.331Z,13.87
2022-12-13T12:31:51.215Z,8.00
2022-12-13T12:34:27.085Z,15.77
2022-12-13T12:37:08.490Z,14.10
2022-12-13T12:39:45.030Z,14.57
2022-12-13T12:42:15.808Z,9.50
2022-12-13T12:44:49.253Z,13.63
2022-12-13T12:47:37.349Z,12.23
2022-12-13T12:50:25.528Z,12.17
2022-12-13T12:52:59.154Z,12.00
2022-12-13T12:55:35.612Z,11.17
2022-12-13T12:58:08.349Z,12.07
2022-12-13T13:00:45.174Z,12.50
2022-12-13T13:03:22.974Z,8.20
2022-12-13T13:05:50.879Z,9.77
2022-12-13T13:08:18.447Z,10.87
2022-12-13T13:10:50.233Z,10.07
2022-12-13T13:13:37.159Z,9.93
2022-12-13T13:16:43.304Z,11.10
2022-12-13T13:19:16.855Z,9.70
2022-12-13T13:21:53.534Z,10.20
2022-12-13T13:24:22.771Z,9.80
2022-12-13T13:26:50.547Z,10.60
2022-12-13T13:29:27.408Z,8.37
2022-12-13T13:32:03.320Z,9.80
2022-12-13T13:34:34.015Z,10.23
2022-12-13T13:37:02.030Z,9.17
2022-12-13T13:39:29.541Z,9.60
2022-12-13T13:42:02.346Z,9.40
2022-12-13T13:44:48.635Z,10.03
2022-12-13T13:47:17.584Z,10.77
2022-12-13T13:50:04.762Z,10.17
2022-12-13T13:52:37.807Z,9.50
2022-12-13T13:55:21.345Z,9.77
2022-12-13T13:58:10.192Z,9.47
2022-12-13T14:00:56.686Z,11.63
2022-12-13T14:06:26.219Z,9.17
2022-12-13T14:09:02.700Z,11.43
2022-12-13T14:11:45.703Z,10.20
2022-12-13T14:14:21.717Z,12.00
2022-12-13T14:17:15.948Z,10.27
2022-12-13T14:20:02.608Z,10.67
2022-12-13T14:22:39.174Z,10.87
2022-12-13T14:25:12.438Z,10.57
2022-12-13T14:27:40.015Z,10.47
2022-12-13T14:30:28.079Z,12.27
2022-12-13T14:32:56.738Z,8.70
2022-12-13T14:35:27.273Z,10.93
2022-12-13T14:38:05.962Z,10.57
2022-12-13T14:40:37.585Z,11.00
2022-12-13T14:43:05.087Z,10.10
2022-12-13T14:45:37.330Z,9.50
2022-12-13T14:48:06.130Z,9.27
2022-12-13T14:50:37.657Z,9.80
2022-12-13T14:53:05.303Z,9.13
2022-12-13T14:55:32.904Z,9.70
2022-12-13T14:58:02.115Z,9.63
2022-12-13T15:00:31.990Z,11.38
2022-12-13T15:03:00.923Z,9.87
2022-12-13T15:05:33.857Z,10.00
2022-12-13T15:08:10.671Z,10.37
2022-12-13T15:10:41.174Z,11.40
2022-12-13T15:13:17.179Z,11.97
2022-12-13T15:15:44.772Z,10.67
2022-12-13T15:18:19.350Z,10.00
2022-12-13T15:20:47.898Z,9.67
2022-12-13T15:23:21.635Z,12.20
2022-12-13T15:25:51.106Z,12.50
2022-12-13T15:28:21.791Z,9.60
2022-12-13T15:30:50.339Z,8.87
2022-12-13T15:33:19.831Z,10.40
2022-12-13T15:35:48.561Z,7.33
2022-12-13T15:38:28.562Z,9.50
2022-12-13T15:40:59.383Z,9.63
2022-12-13T15:43:37.038Z,9.67
2022-12-13T15:46:05.155Z,9.17
2022-12-13T15:48:34.817Z,8.20
2022-12-13T15:51:06.759Z,9.43
2022-12-13T15:53:34.715Z,8.60
2022-12-13T15:56:09.477Z,9.83
2022-12-13T15:58:37.847Z,9.40
2022-12-13T16:01:05.992Z,8.47
2022-12-13T16:03:40.602Z,8.87
2022-12-13T16:06:10.739Z,9.50
2022-12-13T16:08:40.175Z,10.10
2022-12-13T16:11:08.569Z,10.00
2022-12-13T16:13:37.354Z,11.57
2022-12-13T16:16:26.675Z,10.40
2022-12-13T16:18:56.669Z,11.40
2022-12-13T16:21:24.506Z,10.97
2022-12-13T16:23:52.132Z,9.33
2022-12-13T16:26:24.601Z,9.70
2022-12-13T16:28:52.580Z,8.63
2022-12-13T16:31:21.599Z,9.83
2022-12-13T16:33:49.137Z,10.70
2022-12-13T16:36:16.656Z,10.57
2022-12-13T16:38:44.359Z,9.30
2022-12-13T16:41:11.962Z,8.87
2022-12-13T16:43:45.523Z,9.83
2022-12-13T16:47:16.657Z,9.20
2022-12-13T16:49:26.620Z,9.00
2022-12-13T16:51:54.733Z,9.23
2022-12-13T16:54:22.937Z,9.13
2022-12-13T16:56:51.177Z,8.77
2022-12-13T16:59:19.970Z,9.70
2022-12-13T17:01:47.625Z,9.40
2022-12-13T17:04:20.194Z,10.23
2022-12-13T17:06:54.462Z,14.00
2022-12-13T17:09:23.307Z,12.97
2022-12-13T17:11:50.992Z,11.23
2022-12-13T17:14:18.527Z,12.00
2022-12-13T17:16:46.047Z,9.53
2022-12-13T17:19:13.717Z,11.33
2022-12-13T17:21:41.323Z,9.57
2022-12-13T17:24:09.252Z,9.17
2022-12-13T17:26:36.699Z,9.30
2022-12-13T17:29:04.209Z,9.73
2022-12-13T17:31:35.260Z,9.30
2022-12-13T17:34:03.549Z,9.00
2022-12-13T17:36:31.007Z,8.83
2022-12-13T17:38:58.618Z,8.83
2022-12-13T17:41:26.638Z,9.03
2022-12-13T17:43:58.465Z,9.43
2022-12-13T17:46:26.000Z,9.03
2022-12-13T17:48:53.604Z,8.27
2022-12-13T17:51:23.357Z,9.80
2022-12-13T17:53:50.788Z,9.93
2022-12-13T17:56:18.329Z,9.00
2022-12-13T17:58:46.143Z,7.83
2022-12-13T18:01:17.841Z,8.60
2022-12-13T18:03:45.630Z,8.63
2022-12-13T18:06:13.284Z,8.40
2022-12-13T18:08:41.106Z,8.37
2022-12-13T18:13:57.794Z,9.10
2022-12-13T18:16:32.098Z,8.90
2022-12-13T18:19:04.585Z,7.93
2022-12-13T18:21:32.114Z,8.07
2022-12-13T18:24:00.099Z,7.87
2022-12-13T18:26:30.924Z,8.23
2022-12-13T18:28:58.478Z,7.30
2022-12-13T18:31:26.297Z,8.57
2022-12-13T18:33:54.800Z,8.73
2022-12-13T18:36:23.935Z,8.47
2022-12-13T18:38:51.769Z,8.30
2022-12-13T18:41:20.620Z,7.30
2022-12-13T18:43:48.524Z,7.63
2022-12-13T18:46:16.443Z,7.43
2022-12-13T18:48:44.109Z,6.93
2022-12-13T18:51:11.803Z,7.83
2022-12-13T18:53:39.881Z,7.90
2022-12-13T18:56:17.849Z,7.23
2022-12-13T18:58:46.644Z,7.73
2022-12-13T19:01:14.823Z,7.60
2022-12-13T19:03:43.441Z,7.13
2022-12-13T19:06:12.988Z,5.17
2022-12-13T19:08:40.548Z,7.10
2022-12-13T19:11:07.987Z,8.23
2022-12-13T19:13:35.557Z,7.63
2022-12-13T19:16:07.616Z,6.13
2022-12-13T19:18:35.533Z,8.47
2022-12-13T19:21:03.600Z,8.27
2022-12-13T19:23:31.685Z,8.03
2022-12-13T19:26:04.608Z,6.83
2022-12-13T19:28:32.121Z,7.47
2022-12-13T19:30:59.654Z,7.10
2022-12-13T19:33:27.675Z,7.17
2022-12-13T19:35:55.334Z,8.00
2022-12-13T19:38:22.963Z,7.00
2022-12-13T19:40:53.436Z,6.83
2022-12-13T19:43:24.349Z,7.17
2022-12-13T19:45:52.207Z,8.23
2022-12-13T19:48:19.951Z,8.07
2022-12-13T19:50:47.418Z,7.87
2022-12-13T19:53:14.911Z,7.60
2022-12-13T19:55:43.125Z,7.37
2022-12-13T19:58:10.812Z,7.27
2022-12-13T20:00:38.406Z,7.00
2022-12-13T20:03:06.055Z,6.83
2022-12-13T20:05:33.989Z,8.37
2022-12-13T20:08:01.574Z,7.37
2022-12-13T20:10:29.069Z,7.60
2022-12-13T20:12:56.535Z,6.87
2022-12-13T20:15:24.114Z,7.57
2022-12-13T20:17:51.853Z,8.33
2022-12-13T20:20:20.111Z,8.70
2022-12-13T20:22:48.358Z,8.03
2022-12-13T20:25:16.169Z,8.77
2022-12-13T20:27:43.769Z,8.10
2022-12-13T20:30:11.550Z,7.70
2022-12-13T20:32:39.033Z,6.93
2022-12-13T20:35:06.734Z,7.33
2022-12-13T20:37:34.207Z,6.60
2022-12-13T20:40:01.741Z,6.93
2022-12-13T20:42:29.432Z,7.37
2022-12-13T20:44:56.924Z,7.67
2022-12-13T20:47:24.589Z,7.17
2022-12-13T20:49:52.086Z,7.90
2022-12-13T20:52:19.507Z,7.47
2022-12-13T20:54:46.984Z,6.97
2022-12-13T20:57:14.649Z,7.23
2022-12-13T20:59:42.177Z,7.23
2022-12-13T21:02:12.707Z,7.40
2022-12-13T21:04:40.463Z,7.53
2022-12-13T21:07:08.016Z,6.77
2022-12-13T21:09:35.608Z,7.73
2022-12-13T21:12:03.065Z,7.40
2022-12-13T21:14:30.550Z,7.83
2022-12-13T21:16:59.043Z,7.47
2022-12-13T21:19:27.743Z,7.33
2022-12-13T21:21:55.882Z,7.37
2022-12-13T21:24:24.622Z,7.07
2022-12-13T21:26:54.225Z,6.37
2022-12-13T21:29:21.791Z,6.87
2022-12-13T21:31:49.682Z,7.80
2022-12-13T21:34:17.990Z,6.97
2022-12-13T21:36:46.814Z,7.23
2022-12-13T21:39:15.783Z,6.90
2022-12-13T21:41:43.588Z,6.80
2022-12-13T21:44:12.363Z,6.63
2022-12-13T21:49:27.365Z,6.87
2022-12-13T21:51:54.840Z,6.57
2022-12-13T21:54:22.314Z,7.40
2022-12-13T21:56:49.702Z,7.00
2022-12-13T21:59:19.170Z,7.13
2022-12-13T22:02:06.928Z,6.93
2022-12-13T22:04:35.260Z,5.63
2022-12-13T22:07:03.115Z,6.60
2022-12-13T22:09:30.630Z,6.40
2022-12-13T22:11:58.103Z,6.67
2022-12-13T22:14:25.689Z,6.70
2022-12-13T22:16:53.164Z,6.27
2022-12-13T22:19:20.848Z,6.10
2022-12-13T22:21:48.541Z,5.57
2022-12-13T22:24:16.030Z,5.67
2022-12-13T22:26:43.446Z,5.23
2022-12-13T22:29:13.769Z,5.63
2022-12-13T22:31:41.417Z,5.60
2022-12-13T22:34:08.979Z,5.97
2022-12-13T22:36:36.425Z,5.90
2022-12-13T22:39:05.013Z,6.13
2022-12-13T22:41:32.483Z,6.00
2022-12-13T22:44:00.291Z,6.63
2022-12-13T22:46:27.765Z,6.20
2022-12-13T22:48:55.207Z,6.40
2022-12-13T22:51:23.004Z,5.73
2022-12-13T22:53:50.635Z,5.10
2022-12-13T22:56:19.373Z,6.20
2022-12-13T22:58:47.029Z,6.43
2022-12-13T23:01:16.381Z,6.30
2022-12-13T23:03:44.253Z,5.90
2022-12-13T23:06:13.356Z,6.27
2022-12-13T23:08:44.558Z,6.63
2022-12-13T23:11:12.872Z,6.60
2022-12-13T23:13:40.286Z,7.17
2022-12-13T23:16:07.943Z,6.43
2022-12-13T23:18:35.357Z,6.97
2022-12-13T23:21:02.935Z,7.43
2022-12-13T23:23:30.386Z,7.07
2022-12-13T23:25:57.842Z,6.73
2022-12-13T23:28:25.756Z,6.70
2022-12-13T23:30:53.675Z,7.10
2022-12-13T23:33:21.158Z,7.47
2022-12-13T23:35:57.604Z,7.50
2022-12-13T23:38:25.391Z,8.00
2022-12-13T23:41:00.668Z,7.83
2022-12-13T23:43:28.884Z,7.30
2022-12-13T23:45:56.470Z,7.50
2022-12-13T23:48:27.009Z,7.40
2022-12-13T23:50:55.242Z,8.17
2022-12-13T23:53:23.437Z,8.47
2022-12-13T23:55:50.881Z,8.40
2022-12-13T23:58:19.072Z,7.83
